Terminal Aerodrome Forecast
Issued by NWS Nashville, TN

Current Version | Previous Version | Text Only | Print | Product List | Glossary Off
Versions: 1 2 3 4 5 6 7 8 9 10 11 12 13 14 15 16 17 18 19

000
FTUS44 KOHX 012300
TAFBNA
TAF
KBNA 012329Z 0200/0224 10007KT P6SM BKN150
     FM020900 17010KT P6SM BKN080
     FM021300 19015G25KT P6SM VCSH BKN035 BKN060
     FM021700 20018G29KT P6SM -SHRA BKN035=

USA.gov is the U.S. government's official web portal to all federal, state and local government web resources and services.